KBAB/BAB METAR and TAF weather

Enter ICAO airport designator
Station Type Date Time Source
KBAB METAR 2020/12/06 00:58 UTC NOAA

KBAB 060058Z AUTO 07005KT 10SM CLR 12/04 A3023 RMK AO2 SLP240 T01220042 $


Station Type Date Time Source
KBAB Decoded METAR 2020/12/06 00:58 UTC NOAA

Marysville, Beale Air Force Base, CA, United States (KBAB) 39-08N 121-26W
Dec 05, 2020 - 07:58 PM EST / 2020.12.06 0058 UTC
Wind: from the ENE (070 degrees) at 6 MPH (5 KT):0
Visibility: 10 mile(s):0
Sky conditions: clear
Temperature: 54.0 F (12.2 C)
Dew Point: 39.6 F (4.2 C)
Relative Humidity: 58%
Pressure (altimeter): 30.23 in. Hg (1023 hPa)
ob: KBAB 060058Z AUTO 07005KT 10SM CLR 12/04 A3023 RMK AO2 SLP240 T01220042
cycle: 1

Station Type Date Time Source
KBAB TAF 2020/12/05 23:27 UTC NOAA

TAF TAF
AMD KBAB 052303Z 0523/0701 29009KT 9999 BKN210 QNH3016INS
BECMG 0602/0603 09006KT 9999 BKN120 QNH3020INS
BECMG 0611/0612 30009KT 9999 BKN080 QNH3021INS TX17/0523Z TN03/0614Z LAST NO
AMDS AFT 0523 NEXT 0615

Example: see airport list